Latest Weather Observations for Moruya Airport

IDN60801

Issued at 3:33 am EST Saturday 30 April 2016 (issued every 30 minutes, with the page automatically refreshed every 10 minutes)

About weather observations | Map of weather stations | Latest weather observations for NSW | Other Formats
Station Details ID: 069148 Name: MORUYA AIRPORT AWS Lat: -35.90 Lon: 150.14 Height: 4.0 m
Data from the previous 72 hours. | See also: Recent months at Moruya Airport
Date/Time
EST
Temp
°C
App
Temp
°C
Dew
Point
Rel
Hum
%
Delta-T
°C
Wind Press
QNH
hPa
Press
MSL
hPa
Rain
since 9 am
mm
Dir
 
Spd
km/h
Gust
km/h
Spd
kts
Gust
kts
30/03:30am 18.1 19.1 16.8 92 0.8 NNW 7 9 4 5 1015.7 1015.6 1.8
30/03:00am 18.3 19.0 17.0 92 0.8 N 9 11 5 6 1015.9 1015.8 1.6
30/02:30am 18.8 19.6 17.3 91 0.9 N 9 13 5 7 1016.2 1016.1 1.4
30/02:00am 18.7 19.0 16.9 89 1.1 NNE 11 15 6 8 1016.4 1016.3 1.0
30/01:30am 18.6 20.1 15.8 84 1.7 NE 2 9 1 5 1016.3 1016.2 0.0
30/01:00am 18.4 20.2 15.6 84 1.6 CALM 0 4 0 2 1016.2 1016.1 0.0
30/12:30am 18.9 19.5 15.8 82 1.8 NNW 7 9 4 5 1016.3 1016.2 0.0
30/12:17am 19.2 19.7 15.5 79 2.2 N 7 11 4 6 1016.1 1016.0 0.0
30/12:05am 19.2 19.7 15.5 79 2.2 NNE 7 9 4 5 1016.1 1016.0 0.0
30/12:00am 19.3 19.8 15.6 79 2.2 NNE 7 9 4 5 1016.1 1016.0 0.0
 
Date/Time
EST
Temp
°C
App
Temp
°C
Dew
Point
Rel
Hum
%
Delta-T
°C
Wind Press
QNH
hPa
Press
MSL
hPa
Rain
since 9 am
mm
Dir
 
Spd
km/h
Gust
km/h
Spd
kts
Gust
kts
29/11:30pm 19.6 21.3 15.3 76 2.5 CALM 0 0 0 0 1016.0 1015.9 0.0
29/11:00pm 19.8 20.4 15.2 75 2.7 NW 6 9 3 5 1016.2 1016.1 0.0
29/10:30pm 20.7 19.9 15.0 70 3.4 N 13 19 7 10 1016.3 1016.2 0.0
29/10:00pm 19.2 19.5 15.9 81 2.0 NNW 9 15 5 8 1016.7 1016.6 0.0
29/09:30pm 18.8 19.2 16.2 85 1.6 NW 9 11 5 6 1016.8 1016.7 0.0
29/09:00pm 18.9 19.7 16.3 85 1.6 NNW 7 9 4 5 1016.6 1016.5 0.0
29/08:30pm 18.4 20.6 16.4 88 1.2 CALM 0 0 0 0 1016.5 1016.4 0.0
29/08:00pm 18.6 20.1 16.6 88 1.2 NW 4 7 2 4 1016.1 1016.0 0.0
29/07:30pm 18.9 21.4 17.2 90 1.0 CALM 0 0 0 0 1016.2 1016.1 0.0
29/07:00pm 18.6 20.9 16.8 89 1.1 CALM 0 0 0 0 1016.2 1016.1 0.0
29/06:30pm 18.8 21.0 16.6 87 1.3 CALM 0 6 0 3 1016.1 1016.0 0.0
29/06:00pm 19.7 20.6 17.5 87 1.3 ENE 9 11 5 6 1015.9 1015.8 0.0
29/05:30pm 19.8 21.1 17.0 84 1.7 E 6 7 3 4 1015.8 1015.7 0.0
29/05:00pm 21.3 21.6 17.9 81 2.1 NE 13 15 7 8 1015.7 1015.6 0.0
29/04:30pm 21.7 21.5 17.5 77 2.6 NE 15 17 8 9 1015.6 1015.5 0.0
29/04:00pm 22.1 22.2 17.5 75 2.8 NE 13 15 7 8 1015.7 1015.6 0.0
29/03:30pm 22.3 22.3 17.2 73 3.1 NE 13 17 7 9 1015.6 1015.5 0.0
29/03:00pm 21.9 20.8 17.7 77 2.6 NE 20 24 11 13 1015.7 1015.6 0.0
29/02:30pm 23.1 21.7 17.1 69 3.7 NNE 20 26 11 14 1015.9 1015.8 0.0
29/02:00pm 23.0 21.8 17.0 69 3.7 NE 19 24 10 13 1016.1 1016.0 0.0
29/01:30pm 23.1 21.2 16.6 67 4.0 NE 22 28 12 15 1016.3 1016.2 0.0
29/01:00pm 24.1 21.8 15.6 59 5.1 NE 22 28 12 15 1016.4 1016.3 0.0
29/12:30pm 24.2 22.2 16.5 62 4.7 NE 22 26 12 14 1017.0 1016.9 0.0
29/12:00pm 23.7 22.0 15.7 61 4.8 NE 19 22 10 12 1017.7 1017.6 0.0
29/11:30am 24.6 24.1 15.0 55 5.7 NE 11 15 6 8 1018.4 1018.3 0.0
29/11:00am 22.7 22.0 14.3 59 4.9 ENE 11 13 6 7 1018.9 1018.8 0.0
29/10:30am 20.8 20.5 14.5 67 3.7 ENE 9 11 5 6 1019.5 1019.4 0.0
29/10:00am 20.4 21.2 13.8 66 3.8 NE 2 7 1 4 1019.8 1019.7 0.0
29/09:30am 18.9 18.5 13.1 69 3.3 ENE 7 9 4 5 1020.2 1020.2 0.0
29/09:00am 17.7 18.5 13.8 78 2.2 NNE 2 6 1 3 1020.7 1020.7 0.0
29/08:30am 14.7 15.9 13.9 95 0.4 CALM 0 0 0 0 1020.9 1020.9 0.0
29/08:00am 13.3 14.1 12.5 95 0.4 CALM 0 0 0 0 1021.1 1021.1 0.0
29/07:30am 12.5 13.1 11.9 96 0.3 CALM 0 0 0 0 1020.9 1020.9 0.0
29/07:00am 11.6 11.9 11.0 96 0.3 CALM 0 0 0 0 1020.7 1020.7 0.0
29/06:30am 11.0 11.1 10.2 95 0.4 CALM 0 0 0 0 1020.4 1020.4 0.0
29/06:00am 11.6 11.9 10.8 95 0.4 CALM 0 0 0 0 1020.1 1020.1 0.0
29/05:30am 11.8 11.8 11.0 95 0.4 N 2 6 1 3 1020.1 1020.1 0.0
29/05:19am 11.6 11.9 10.8 95 0.4 CALM 0 6 0 3 1020.1 1020.1 0.0
29/05:00am 11.3 11.5 10.5 95 0.4 CALM 0 0 0 0 1020.0 1020.0 0.0
29/04:58am 11.4 11.6 10.6 95 0.4 CALM 0 0 0 0 1020.0 1020.0 0.0
29/04:50am 11.6 11.9 10.8 95 0.4 CALM 0 0 0 0 1020.0 1020.0 0.0
29/04:34am 11.7 12.0 10.9 95 0.4 CALM 0 0 0 0 1020.2 1020.2 0.0
29/04:30am 11.8 12.1 11.0 95 0.4 CALM 0 0 0 0 1020.1 1020.1 0.0
29/04:00am 11.9 12.3 11.1 95 0.4 CALM 0 6 0 3 1020.1 1020.1 0.0
29/03:30am 11.7 12.0 10.9 95 0.4 CALM 0 0 0 0 1020.0 1020.0 0.0
29/03:13am 12.2 12.6 11.4 95 0.4 CALM 0 0 0 0 1020.0 1020.0 0.0
29/03:00am 11.5 11.7 10.7 95 0.4 CALM 0 0 0 0 1020.0 1020.0 0.0
29/02:54am 12.3 12.8 11.5 95 0.4 CALM 0 0 0 0 1020.0 1020.0 0.0
29/02:44am 12.4 12.9 11.6 95 0.4 CALM 0 0 0 0 1020.0 1020.0 0.0
29/02:30am 12.2 12.6 11.4 95 0.4 CALM 0 0 0 0 1020.1 1020.1 0.0
29/02:00am 12.3 12.7 11.4 94 0.5 CALM 0 0 0 0 1020.5 1020.5 0.0
29/01:57am 12.1 12.5 11.2 94 0.5 CALM 0 0 0 0 1020.5 1020.5 0.0
29/01:30am 13.1 13.8 12.2 94 0.5 CALM 0 0 0 0 1020.6 1020.6 0.0
29/01:00am 13.3 12.7 12.4 94 0.5 W 7 11 4 6 1020.7 1020.7 0.0
29/12:30am 13.2 13.9 12.3 94 0.5 CALM 0 0 0 0 1020.9 1020.9 0.0
29/12:00am 13.9 14.8 13.0 94 0.5 CALM 0 0 0 0 1020.8 1020.8 0.0
 
Date/Time
EST
Temp
°C
App
Temp
°C
Dew
Point
Rel
Hum
%
Delta-T
°C
Wind Press
QNH
hPa
Press
MSL
hPa
Rain
since 9 am
mm
Dir
 
Spd
km/h
Gust
km/h
Spd
kts
Gust
kts
28/11:30pm 13.7 14.6 12.8 94 0.5 CALM 0 0 0 0 1021.0 1021.0 0.0
28/11:00pm 14.3 15.3 13.2 93 0.6 CALM 0 4 0 2 1021.1 1021.1 0.0
28/10:30pm 14.5 15.6 13.4 93 0.6 CALM 0 0 0 0 1021.1 1021.1 0.0
28/10:00pm 14.3 14.1 13.0 92 0.7 WNW 6 7 3 4 1021.2 1021.2 0.0
28/09:30pm 14.9 16.0 13.6 92 0.7 CALM 0 7 0 4 1021.3 1021.3 0.0
28/09:00pm 15.3 16.5 13.8 91 0.8 CALM 0 0 0 0 1021.1 1021.1 0.0
28/08:30pm 15.6 16.5 14.0 90 0.9 SW 2 7 1 4 1020.9 1020.9 0.0
28/08:00pm 16.1 17.5 14.3 89 1.0 CALM 0 0 0 0 1020.7 1020.7 0.0
28/07:30pm 16.7 16.8 14.5 87 1.3 SW 7 11 4 6 1020.6 1020.6 0.0
28/07:00pm 17.3 17.5 14.8 85 1.4 NW 7 11 4 6 1020.4 1020.4 0.0
28/06:30pm 17.0 18.6 14.8 87 1.3 CALM 0 0 0 0 1020.3 1020.3 0.0
28/06:00pm 17.8 19.4 14.9 83 1.7 CALM 0 0 0 0 1020.2 1020.2 0.0
28/05:30pm 20.4 21.1 15.6 74 2.9 NNE 6 9 3 5 1019.9 1019.8 0.0
28/05:00pm 20.6 20.1 15.8 74 2.9 NNE 13 17 7 9 1019.6 1019.5 0.0
28/04:30pm 22.4 22.0 17.1 72 3.3 NNE 15 20 8 11 1019.4 1019.3 0.0
28/04:00pm 22.7 22.5 17.6 73 3.2 NNE 15 19 8 10 1019.4 1019.3 0.0
28/03:30pm 22.2 21.0 17.1 73 3.1 NNE 19 26 10 14 1019.6 1019.5 0.0
28/03:00pm 23.0 23.1 18.3 75 2.9 NE 15 19 8 10 1019.5 1019.4 0.0
28/02:30pm 23.3 23.4 17.5 70 3.6 ENE 13 17 7 9 1019.6 1019.5 0.0
28/02:00pm 23.3 23.4 16.4 65 4.2 E 11 13 6 7 1019.8 1019.7 0.0
28/01:30pm 23.7 24.0 17.0 66 4.1 E 11 13 6 7 1019.9 1019.8 0.0
28/01:00pm 23.3 22.7 14.6 58 5.1 E 11 15 6 8 1020.0 1020.0 0.0
28/12:30pm 24.1 24.1 14.2 54 5.8 NNE 7 11 4 6 1020.5 1020.5 0.0
28/12:00pm 22.9 23.0 13.9 57 5.2 ENE 6 9 3 5 1020.9 1020.9 0.0
28/11:30am 21.9 23.3 14.3 62 4.4 CALM 0 7 0 4 1021.4 1021.4 0.0
28/11:00am 21.2 22.5 14.1 64 4.1 CALM 0 6 0 3 1021.8 1021.8 0.0
28/10:30am 20.6 21.6 13.1 62 4.3 CALM 0 0 0 0 1021.9 1021.9 0.0
28/10:00am 19.1 19.2 12.6 66 3.6 N 4 7 2 4 1022.1 1022.1 0.0
28/09:30am 17.7 17.4 12.6 72 2.8 NNW 6 9 3 5 1022.3 1022.3 0.0
28/09:00am 15.5 16.4 12.8 84 1.5 CALM 0 0 0 0 1022.5 1022.5 0.2
28/08:30am 14.9 16.1 13.8 93 0.6 CALM 0 0 0 0 1022.5 1022.5 0.2
28/08:00am 13.5 14.3 12.7 95 0.4 CALM 0 0 0 0 1022.4 1022.4 0.2
28/07:30am 11.1 11.2 10.3 95 0.4 CALM 0 0 0 0 1022.1 1022.1 0.0
28/07:00am 10.7 10.7 9.9 95 0.4 CALM 0 0 0 0 1021.7 1021.7 0.0
28/06:30am 10.7 10.0 9.9 95 0.4 WSW 4 7 2 4 1021.6 1021.6 0.0
28/06:00am 10.5 10.5 9.7 95 0.4 CALM 0 0 0 0 1021.5 1021.5 0.0
28/05:30am 10.5 10.5 9.7 95 0.4 CALM 0 6 0 3 1021.4 1021.4 0.0
28/05:00am 10.9 10.6 10.1 95 0.4 WNW 2 7 1 4 1021.4 1021.4 0.0
28/04:30am 10.6 10.6 9.7 94 0.5 CALM 0 0 0 0 1021.4 1021.4 0.0
28/04:00am 10.9 11.0 10.0 94 0.5 CALM 0 0 0 0 1021.3 1021.3 0.0
28/03:30am 11.1 11.2 10.2 94 0.5 CALM 0 0 0 0 1021.2 1021.2 0.0
28/03:00am 11.1 11.2 10.0 93 0.6 CALM 0 0 0 0 1021.4 1021.4 0.0
28/02:30am 10.9 9.5 9.7 92 0.6 NNW 7 7 4 4 1021.5 1021.5 0.0
28/02:00am 12.0 12.2 10.7 92 0.7 CALM 0 6 0 3 1021.6 1021.6 0.0
28/01:30am 12.1 12.0 10.7 91 0.7 WNW 2 9 1 5 1021.7 1021.7 0.0
28/01:00am 11.7 10.6 9.9 89 0.9 NNW 6 9 3 5 1021.2 1021.2 0.0
28/12:30am 12.1 11.1 10.3 89 0.9 NW 6 7 3 4 1021.4 1021.4 0.0
28/12:00am 13.0 13.4 11.2 89 0.9 CALM 0 6 0 3 1021.5 1021.5 0.0
 
Date/Time
EST
Temp
°C
App
Temp
°C
Dew
Point
Rel
Hum
%
Delta-T
°C
Wind Press
QNH
hPa
Press
MSL
hPa
Rain
since 9 am
mm
Dir
 
Spd
km/h
Gust
km/h
Spd
kts
Gust
kts
27/11:30pm 13.8 13.2 11.8 88 1.1 NW 6 9 3 5 1021.5 1021.5 0.0
27/11:00pm 15.2 14.7 12.2 82 1.6 NW 6 9 3 5 1021.7 1021.7 0.0
27/10:30pm 15.7 15.3 13.0 84 1.5 NNW 7 15 4 8 1022.0 1022.0 0.0
27/10:00pm 15.1 14.8 12.6 85 1.4 N 6 11 3 6 1022.1 1022.1 0.0
27/09:30pm 15.8 16.3 12.9 83 1.6 ENE 2 7 1 4 1022.2 1022.2 0.0
27/09:00pm 16.9 16.8 13.2 79 2.1 NW 6 11 3 6 1022.2 1022.2 0.0
27/08:30pm 17.8 16.5 13.7 77 2.3 N 13 20 7 11 1022.1 1022.1 0.0
27/08:00pm 16.9 16.5 13.0 78 2.2 N 7 13 4 7 1022.2 1022.2 0.0
27/07:30pm 18.2 17.9 13.3 73 2.8 NW 7 13 4 7 1022.2 1022.2 0.0
27/07:00pm 19.2 17.1 13.6 70 3.2 N 17 24 9 13 1021.8 1021.8 0.0
27/06:30pm 19.5 17.3 13.4 68 3.5 N 17 20 9 11 1021.6 1021.6 0.0
27/06:00pm 19.6 17.3 13.1 66 3.7 N 17 22 9 12 1021.3 1021.3 0.0
27/05:30pm 19.9 17.6 13.1 65 3.9 N 17 22 9 12 1021.0 1021.0 0.0
27/05:00pm 20.7 18.0 13.6 64 4.1 N 20 26 11 14 1020.7 1020.7 0.0
27/04:30pm 21.7 18.8 14.1 62 4.4 NNE 22 28 12 15 1020.7 1020.7 0.0
27/04:00pm 22.2 18.4 14.8 63 4.4 NNE 28 35 15 19 1020.7 1020.7 0.0
27/03:30pm 22.4 17.8 14.5 61 4.6 NNE 32 43 17 23 1020.9 1020.9 0.0
27/03:00pm 23.0 18.2 12.9 53 5.8 NNE 30 37 16 20 1020.8 1020.8 0.0
27/02:30pm 22.8 18.4 13.0 54 5.6 NE 28 35 15 19 1020.8 1020.8 0.0
27/02:00pm 23.3 19.6 13.8 55 5.5 NE 26 35 14 19 1021.0 1021.0 0.0
27/01:30pm 23.1 19.3 13.6 55 5.5 NE 26 33 14 18 1021.3 1021.3 0.0
27/01:00pm 23.4 19.8 11.8 48 6.5 NE 22 30 12 16 1021.8 1021.8 0.0
27/12:30pm 22.6 18.6 10.4 46 6.7 NE 22 28 12 15 1022.2 1022.2 0.0
27/12:00pm 23.4 19.7 10.1 43 7.3 NE 20 30 11 16 1022.8 1022.8 0.0
27/11:30am 22.5 18.8 10.3 46 6.7 NE 20 26 11 14 1023.3 1023.3 0.0
27/11:00am 22.5 18.9 10.6 47 6.5 NNE 20 24 11 13 1023.9 1023.9 0.0
27/10:30am 22.3 19.4 11.1 49 6.2 N 17 26 9 14 1024.4 1024.4 0.0
27/10:00am 20.9 18.3 10.7 52 5.5 N 15 22 8 12 1025.0 1025.0 0.0
27/09:30am 19.9 16.8 11.7 59 4.5 N 19 24 10 13 1025.4 1025.4 0.0
27/09:00am 18.8 16.9 11.9 64 3.8 N 13 19 7 10 1025.7 1025.7 0.0
27/08:30am 17.0 14.2 11.3 69 3.1 N 17 22 9 12 1025.9 1025.9 0.0
27/08:00am 15.3 13.4 11.9 80 1.8 N 13 20 7 11 1025.9 1025.9 0.0
27/07:30am 12.1 10.9 11.5 96 0.3 NNW 9 17 5 9 1025.9 1025.9 0.0
27/07:00am 10.2 8.8 9.6 96 0.3 NW 7 11 4 6 1025.8 1025.8 0.0
27/06:44am 9.6 8.1 9.0 96 0.3 NW 7 9 4 5 1025.7 1025.7 0.0
27/06:30am 9.4 7.4 8.8 96 0.3 NW 9 11 5 6 1025.5 1025.5 0.0
27/06:25am 8.9 6.8 8.3 96 0.3 NW 9 11 5 6 1025.5 1025.5 0.0
27/06:00am 10.6 8.9 10.0 96 0.3 WNW 9 11 5 6 1025.3 1025.3 0.0
27/05:30am 10.1 8.3 9.5 96 0.3 NW 9 11 5 6 1025.3 1025.3 0.0
27/05:00am 9.9 9.8 9.3 96 0.3 CALM 0 0 0 0 1025.4 1025.4 0.0
27/04:30am 10.0 9.9 9.4 96 0.3 CALM 0 0 0 0 1025.3 1025.3 0.0
27/04:00am 9.7 9.5 8.9 95 0.4 CALM 0 4 0 2 1025.1 1025.1 0.0
27/03:38am 10.1 8.6 9.3 95 0.4 WNW 7 9 4 5 1025.1 1025.1 0.0

Other Formats:

Comma delimited format used in spreadsheet applications
http://www.bom.gov.au/fwo/IDN60801/IDN60801.95937.axf

JavaScript Object Notation format (JSON) in row-major order
http://www.bom.gov.au/fwo/IDN60801/IDN60801.95937.json